CST,Max TemperatureF,Mean TemperatureF,Min TemperatureF,Max Dew PointF,MeanDew PointF,Min DewpointF,Max Humidity, Mean Humidity, Min Humidity, Max Sea Level PressureIn, Mean Sea Level PressureIn, Min Sea Level PressureIn, Max VisibilityMiles, Mean VisibilityMiles, Min VisibilityMiles, Max Wind SpeedMPH, Mean Wind SpeedMPH, Max Gust SpeedMPH,PrecipitationIn, CloudCover, Events, WindDirDegrees
2014-2-1,24,16,8,21,14,3,100,83,67,30.27,30.04,29.89,10,8,2,20,7,26,0.01,5,Snow,353
2014-2-2,24,12,0,10,5,-4,92,73,50,30.36,30.28,30.23,10,10,10,12,6,17,0.00,0,,234
2014-2-3,28,16,5,19,10,1,93,71,55,30.24,30.21,30.17,10,10,10,14,8,17,0.00,3,,167
2014-2-4,23,13,3,21,14,-2,100,92,78,30.36,30.25,30.19,10,4,0,28,11,37,0.01,8,Rain-Snow,38
2014-2-5,8,3,-2,-2,-5,-9,78,69,52,30.61,30.53,30.36,10,8,2,23,16,32,0.00,4,Rain-Snow,334
2014-2-6,8,0,-9,-4,-9,-15,78,65,48,30.59,30.49,30.38,10,10,10,14,7,20,0.00,1,,273
2014-2-7,14,7,0,7,-1,-8,85,66,49,30.37,30.25,30.13,10,10,8,18,9,23,0.00,6,Snow,203
2014-2-8,26,18,10,21,14,7,100,85,64,30.19,30.06,29.99,10,7,2,13,8,15,0.00,7,Snow,237
2014-2-9,17,8,0,14,3,-6,92,74,62,30.41,30.31,30.20,10,10,4,15,8,21,0.00,5,Snow,344
2014-2-10,10,3,-4,-4,-6,-8,85,68,52,30.50,30.45,30.41,10,10,10,7,4,,0.00,2,,35
2014-2-11,17,8,0,9,1,-8,78,67,58,30.44,30.28,30.07,10,10,10,21,10,29,0.00,6,,167
2014-2-12,28,22,17,23,17,5,93,80,58,30.08,30.00,29.81,10,9,1,15,10,22,0.00,7,Rain-Snow,203
2014-2-13,50,37,24,30,25,18,93,72,37,29.82,29.72,29.68,10,10,7,21,13,28,0.00,3,,274
2014-2-14,26,20,15,21,14,9,100,74,51,30.08,29.91,29.63,10,10,2,20,11,26,0.05,4,Snow,2
2014-2-15,51,33,15,32,22,9,87,74,44,30.04,29.91,29.76,10,10,1,26,12,36,0.00,3,Snow,196
2014-2-16,32,26,21,28,24,19,100,91,80,30.16,30.03,29.85,10,10,5,21,11,26,0.00,7,,108
2014-2-17,51,38,26,34,26,21,100,66,30,29.91,29.86,29.75,10,8,1,25,11,36,0.08,2,Snow,245
2014-2-18,62,50,39,32,27,23,70,46,24,29.92,29.72,29.61,10,10,10,26,14,39,0.00,0,,259
2014-2-19,48,38,28,36,30,23,93,71,37,29.94,29.82,29.58,10,10,10,18,8,24,0.00,2,,191
2014-2-20,41,32,24,37,29,16,100,83,69,29.71,29.58,29.41,10,9,0,30,15,39,0.11,8,Snow,320
2014-2-21,44,32,21,32,23,14,87,69,49,29.86,29.78,29.71,10,10,10,22,12,30,0.00,0,,264
2014-2-22,35,30,24,30,23,18,100,76,56,30.19,30.00,29.86,10,10,10,15,7,18,0.00,3,,21
2014-2-23,30,24,19,18,11,7,80,57,43,30.35,30.29,30.19,10,10,10,14,9,17,0.00,4,,357
2014-2-24,24,22,19,19,16,10,100,78,59,30.36,30.29,30.20,10,9,2,12,5,14,0.00,6,Snow,79
2014-2-25,19,12,5,18,3,-4,93,70,57,30.47,30.39,30.30,10,10,8,20,12,28,0.00,3,Snow,338
2014-2-26,33,16,0,16,5,-4,85,62,44,30.45,30.12,29.87,10,10,10,24,10,32,0.00,0,,274
2014-2-27,21,12,3,5,-5,-15,73,50,27,30.18,30.05,29.88,10,10,10,18,12,24,0.00,2,,59
2014-2-28,39,26,12,25,11,0,100,63,38,30.12,29.87,29.76,10,9,2,18,14,30,0.00,5,Snow,97